LSGGLSGS

Guest
Details From LSGG - Geneva
To LSGS - Sion
Flight Number -
Tags decoded
Created
Modified
Stats Distance 83 nm / 154 km
Max Altitude 0 ft / 0 m
Waypoints 5
Social Downloads 6
Likes 0
Share VATSIM

Download

Looking for another format? Having issues loading an existing format? Contact us
Advertisement - Login to hide

Notes

Requested: LSGG SOSAL LAMUR ALETO GRANA LSGS

Route

LSGG SOSAL LAMUR GRANA LSGS

ID Type Via Altitude (ft/m) Position (lat/lon) Dist (leg/tot) Name
O LSGG APT - 0 / 0 46.23775 / 6.10617 - / 0 nm Geneva
SOSAL FIX - 0 / 0 46.55806 / 6.88444 37 / 37 nm
LAMUR FIX - 0 / 0 46.57972 / 7.23139 14 / 51 nm
GRANA FIX - 0 / 0 46.28361 / 7.53250 21 / 73 nm
O LSGS APT - 0 / 0 46.21895 / 7.32409 9 / 83 nm Sion

Altitude Profile

Advertisement - Login to hide

LSGG

Details ICAO LSGG (GVA)
Name Geneva
Region Switzerland
Timezone Europe/Zurich (UTC+2.0)
Stats Elevation 1,410 ft / 430 m (AMSL)
Location 46.237700° 6.106100°
Runways 2
Magnetic Variation 1.841° E

METAR

LSGG 201520Z VRB02KT 7000 NSC 17/10 Q1025 NOSIG

Decode

TAF

TAF LSGG 201425Z 2015/2121 05007KT 6000 FEW020 TX17/2015Z TN07/2106Z TX17/2115Z BECMG 2018/2020 VRB03KT TEMPO 2103/2109 3500 BR BKN010 BECMG 2109/2111 05008KT FEW020

Decode

Departure Runways

ID Width Length Bearing (true/mag) Surface Threshold Overrun Markings Lighting
04 164 ft / 50 m 12,806 ft / 3,903 m 45.46° / 43.62° CONCRETE 1,073 ft / 327 m 0 ft / 0 m PREC-APP CENTERLINE EDGE THRESHOLD ALSF-I TDZ REIL-UNI
04L 98 ft / 30 m 2,703 ft / 824 m 45.31° / 43.47° GRASS 610 ft / 186 m 0 ft / 0 m NONE
22 164 ft / 50 m 12,806 ft / 3,903 m 225.48° / 223.64° CONCRETE 0 ft / 0 m 0 ft / 0 m PREC-APP CENTERLINE EDGE THRESHOLD ALSF-II TDZ REIL-UNI
22R 98 ft / 30 m 2,703 ft / 824 m 225.31° / 223.47° GRASS 1,001 ft / 305 m 0 ft / 0 m NONE

LSGS

Details ICAO LSGS (SIR)
Name Sion
Region Switzerland
Timezone Europe/Zurich (UTC+2.0)
Stats Elevation 1,584 ft / 483 m (AMSL)
Location 46.219400° 7.326090°
Runways 2
Magnetic Variation 2.145° E

METAR

LSGS 201520Z 26009KT CAVOK 17/10 Q1024

Decode

TAF

Not found

Destination Runways

ID Width Length Bearing (true/mag) Surface Threshold Overrun Markings Lighting
07 131 ft / 40 m 6,568 ft / 2,002 m 72.86° / 70.72° ASPHALT 148 ft / 45 m 646 ft / 197 m VISUAL EDGE THRESHOLD SALS REIL-UNI
07L 98 ft / 30 m 2,167 ft / 661 m 72.94° / 70.79° GRASS 0 ft / 0 m 0 ft / 0 m NONE
25 131 ft / 40 m 6,568 ft / 2,002 m 252.88° / 250.74° ASPHALT 141 ft / 43 m 640 ft / 195 m VISUAL EDGE THRESHOLD SALS REIL-UNI
25R 98 ft / 30 m 2,167 ft / 661 m 252.94° / 250.80° GRASS 351 ft / 107 m 0 ft / 0 m NONE

Approach Navaids

Runway Type Ident Frequency Range Bearing (true/mag) Slope Elevation
25 LOC-ILS ISI 110.70 MHz 45 nm / 83 km 252.87° / 250.73 ° - 1,584 ft / 483 m (AMSL)
25 GS ISI 110.70 MHz 45 nm / 83 km 252.87° / 250.73 ° 6.00° 1,584 ft / 483 m (AMSL)
25 DME ISI 108.35 MHz 45 nm / 83 km - - 1,609 ft / 490 m (AMSL)

Popular Alternatives